Terminal Aerodrome Forecast
Issued by NWS El Paso, TX

Home | Current Version | Previous Version | Text Only | Print | Product List | Glossary On
Versions: 1 2 3 4 5 6 7 8 9 10 11 12 13 14 15 16 17
000
FTUS44 KEPZ 221200 AAA
TAFELP
TAF AMD
KELP 221207Z 2212/2312 35010KT 6SM -SHRA SCT010 BKN020
      TEMPO 2212/2216 VRB20G30KT 3SM TSRA FEW005 BKN012CB OVC020
     FM221600 12012KT P6SM VCTS BKN025CB BKN080 BKN200
     FM230000 10010KT P6SM VCTS BKN040CB BKN100 BKN200
      TEMPO 2300/2304 VRB15G25KT 3SM TSRA BKN030CB=

USA.gov is the U.S. government's official web portal to all federal, state and local government web resources and services.